sensor_id;sensor_type;location;lat;lon;timestamp;P1;durP1;ratioP1;P2;durP2;ratioP2
6537;SDS011;3302;52.508;13.454;2023-07-29T00:00:42;0.30;;;0.30;;
6537;SDS011;3302;52.508;13.454;2023-07-29T00:03:09;0.27;;;0.27;;
6537;SDS011;3302;52.508;13.454;2023-07-29T00:05:36;1.27;;;1.27;;
6537;SDS011;3302;52.508;13.454;2023-07-29T00:08:02;0.40;;;0.40;;
6537;SDS011;3302;52.508;13.454;2023-07-29T00:10:30;0.30;;;0.30;;
6537;SDS011;3302;52.508;13.454;2023-07-29T00:12:57;1.10;;;0.57;;
6537;SDS011;3302;52.508;13.454;2023-07-29T00:15:23;0.37;;;0.37;;
6537;SDS011;3302;52.508;13.454;2023-07-29T00:17:49;0.30;;;0.30;;
6537;SDS011;3302;52.508;13.454;2023-07-29T00:20:15;0.80;;;0.80;;
6537;SDS011;3302;52.508;13.454;2023-07-29T00:22:41;0.87;;;0.87;;
6537;SDS011;3302;52.508;13.454;2023-07-29T00:25:07;0.30;;;0.30;;
6537;SDS011;3302;52.508;13.454;2023-07-29T00:27:33;0.40;;;0.40;;
6537;SDS011;3302;52.508;13.454;2023-07-29T00:29:58;0.20;;;0.20;;
6537;SDS011;3302;52.508;13.454;2023-07-29T00:32:24;0.40;;;0.40;;
6537;SDS011;3302;52.508;13.454;2023-07-29T00:34:52;0.30;;;0.30;;
6537;SDS011;3302;52.508;13.454;2023-07-29T00:37:17;0.20;;;0.20;;
6537;SDS011;3302;52.508;13.454;2023-07-29T00:39:46;1.07;;;1.03;;
6537;SDS011;3302;52.508;13.454;2023-07-29T00:42:12;0.40;;;0.40;;
6537;SDS011;3302;52.508;13.454;2023-07-29T00:44:38;1.03;;;0.73;;
6537;SDS011;3302;52.508;13.454;2023-07-29T00:47:04;0.30;;;0.30;;
6537;SDS011;3302;52.508;13.454;2023-07-29T00:49:32;0.20;;;0.20;;
6537;SDS011;3302;52.508;13.454;2023-07-29T00:51:58;0.20;;;0.20;;
6537;SDS011;3302;52.508;13.454;2023-07-29T00:54:24;0.40;;;0.40;;
6537;SDS011;3302;52.508;13.454;2023-07-29T00:56:50;0.40;;;0.40;;
6537;SDS011;3302;52.508;13.454;2023-07-29T00:59:16;0.30;;;0.30;;
6537;SDS011;3302;52.508;13.454;2023-07-29T01:01:42;0.30;;;0.30;;
6537;SDS011;3302;52.508;13.454;2023-07-29T01:04:08;0.30;;;0.30;;
6537;SDS011;3302;52.508;13.454;2023-07-29T01:06:49;0.60;;;0.60;;
6537;SDS011;3302;52.508;13.454;2023-07-29T01:14:59;0.40;;;0.40;;
6537;SDS011;3302;52.508;13.454;2023-07-29T01:17:33;0.80;;;0.80;;
6537;SDS011;3302;52.508;13.454;2023-07-29T01:20:09;0.43;;;0.43;;
6537;SDS011;3302;52.508;13.454;2023-07-29T01:22:42;0.60;;;0.60;;
6537;SDS011;3302;52.508;13.454;2023-07-29T01:25:09;0.30;;;0.30;;
6537;SDS011;3302;52.508;13.454;2023-07-29T01:27:34;0.40;;;0.40;;
6537;SDS011;3302;52.508;13.454;2023-07-29T01:30:00;0.47;;;0.47;;
6537;SDS011;3302;52.508;13.454;2023-07-29T01:35:40;0.30;;;0.30;;
6537;SDS011;3302;52.508;13.454;2023-07-29T01:38:06;0.30;;;0.30;;
6537;SDS011;3302;52.508;13.454;2023-07-29T01:40:36;0.33;;;0.33;;
6537;SDS011;3302;52.508;13.454;2023-07-29T01:43:02;0.27;;;0.27;;
6537;SDS011;3302;52.508;13.454;2023-07-29T01:45:28;0.33;;;0.33;;
6537;SDS011;3302;52.508;13.454;2023-07-29T01:47:57;0.27;;;0.27;;
6537;SDS011;3302;52.508;13.454;2023-07-29T01:50:22;0.40;;;0.40;;
6537;SDS011;3302;52.508;13.454;2023-07-29T01:52:48;0.30;;;0.30;;
6537;SDS011;3302;52.508;13.454;2023-07-29T01:55:14;0.30;;;0.30;;
6537;SDS011;3302;52.508;13.454;2023-07-29T01:57:40;0.47;;;0.47;;
6537;SDS011;3302;52.508;13.454;2023-07-29T02:00:06;0.27;;;0.27;;
6537;SDS011;3302;52.508;13.454;2023-07-29T02:02:33;0.40;;;0.40;;
6537;SDS011;3302;52.508;13.454;2023-07-29T02:04:58;0.20;;;0.20;;
6537;SDS011;3302;52.508;13.454;2023-07-29T02:07:24;0.30;;;0.30;;
6537;SDS011;3302;52.508;13.454;2023-07-29T02:09:51;0.70;;;0.70;;
6537;SDS011;3302;52.508;13.454;2023-07-29T02:12:18;0.27;;;0.27;;
6537;SDS011;3302;52.508;13.454;2023-07-29T02:14:44;0.30;;;0.30;;
6537;SDS011;3302;52.508;13.454;2023-07-29T02:17:10;0.30;;;0.30;;
6537;SDS011;3302;52.508;13.454;2023-07-29T02:19:35;0.40;;;0.40;;
6537;SDS011;3302;52.508;13.454;2023-07-29T02:22:01;0.30;;;0.30;;
6537;SDS011;3302;52.508;13.454;2023-07-29T02:24:27;0.43;;;0.43;;
6537;SDS011;3302;52.508;13.454;2023-07-29T02:26:53;0.43;;;0.43;;
6537;SDS011;3302;52.508;13.454;2023-07-29T02:29:19;0.30;;;0.30;;
6537;SDS011;3302;52.508;13.454;2023-07-29T02:31:45;0.30;;;0.30;;
6537;SDS011;3302;52.508;13.454;2023-07-29T02:34:12;0.83;;;0.83;;
6537;SDS011;3302;52.508;13.454;2023-07-29T02:36:39;0.30;;;0.30;;
6537;SDS011;3302;52.508;13.454;2023-07-29T02:39:04;0.30;;;0.30;;
6537;SDS011;3302;52.508;13.454;2023-07-29T02:41:31;0.30;;;0.30;;
6537;SDS011;3302;52.508;13.454;2023-07-29T02:43:57;0.37;;;0.37;;
6537;SDS011;3302;52.508;13.454;2023-07-29T02:46:22;0.30;;;0.30;;
6537;SDS011;3302;52.508;13.454;2023-07-29T02:48:49;0.20;;;0.20;;
6537;SDS011;3302;52.508;13.454;2023-07-29T02:51:15;0.43;;;0.43;;
6537;SDS011;3302;52.508;13.454;2023-07-29T02:53:41;0.30;;;0.30;;
6537;SDS011;3302;52.508;13.454;2023-07-29T02:56:07;0.30;;;0.30;;
6537;SDS011;3302;52.508;13.454;2023-07-29T02:58:35;0.20;;;0.20;;
6537;SDS011;3302;52.508;13.454;2023-07-29T03:01:02;0.37;;;0.37;;
6537;SDS011;3302;52.508;13.454;2023-07-29T03:03:30;0.30;;;0.30;;
6537;SDS011;3302;52.508;13.454;2023-07-29T03:06:09;0.77;;;0.77;;
6537;SDS011;3302;52.508;13.454;2023-07-29T03:08:36;1.93;;;1.70;;
6537;SDS011;3302;52.508;13.454;2023-07-29T03:11:07;0.30;;;0.30;;
6537;SDS011;3302;52.508;13.454;2023-07-29T03:13:35;0.40;;;0.40;;
6537;SDS011;3302;52.508;13.454;2023-07-29T03:16:08;0.20;;;0.20;;
6537;SDS011;3302;52.508;13.454;2023-07-29T03:18:36;0.20;;;0.20;;
6537;SDS011;3302;52.508;13.454;2023-07-29T03:21:02;0.30;;;0.30;;
6537;SDS011;3302;52.508;13.454;2023-07-29T03:23:29;0.83;;;0.83;;
6537;SDS011;3302;52.508;13.454;2023-07-29T03:25:56;0.30;;;0.30;;
6537;SDS011;3302;52.508;13.454;2023-07-29T03:28:24;2.10;;;1.97;;
6537;SDS011;3302;52.508;13.454;2023-07-29T03:30:53;0.30;;;0.30;;
6537;SDS011;3302;52.508;13.454;2023-07-29T03:33:19;0.73;;;0.73;;
6537;SDS011;3302;52.508;13.454;2023-07-29T03:35:45;0.30;;;0.30;;
6537;SDS011;3302;52.508;13.454;2023-07-29T03:38:11;1.03;;;1.03;;
6537;SDS011;3302;52.508;13.454;2023-07-29T03:40:37;0.40;;;0.40;;
6537;SDS011;3302;52.508;13.454;2023-07-29T03:43:04;0.20;;;0.20;;
6537;SDS011;3302;52.508;13.454;2023-07-29T03:45:29;0.20;;;0.20;;
6537;SDS011;3302;52.508;13.454;2023-07-29T03:47:56;0.30;;;0.30;;
6537;SDS011;3302;52.508;13.454;2023-07-29T03:50:22;0.50;;;0.50;;
6537;SDS011;3302;52.508;13.454;2023-07-29T03:52:47;0.20;;;0.20;;
6537;SDS011;3302;52.508;13.454;2023-07-29T03:55:13;0.30;;;0.30;;
6537;SDS011;3302;52.508;13.454;2023-07-29T03:57:39;0.20;;;0.20;;
6537;SDS011;3302;52.508;13.454;2023-07-29T04:00:05;0.23;;;0.23;;
6537;SDS011;3302;52.508;13.454;2023-07-29T04:02:31;0.30;;;0.30;;
6537;SDS011;3302;52.508;13.454;2023-07-29T04:04:57;0.30;;;0.30;;
6537;SDS011;3302;52.508;13.454;2023-07-29T04:07:23;0.30;;;0.30;;
6537;SDS011;3302;52.508;13.454;2023-07-29T04:09:49;0.30;;;0.30;;
6537;SDS011;3302;52.508;13.454;2023-07-29T04:12:15;0.30;;;0.30;;
6537;SDS011;3302;52.508;13.454;2023-07-29T04:14:41;0.50;;;0.50;;
6537;SDS011;3302;52.508;13.454;2023-07-29T04:17:07;0.60;;;0.60;;
6537;SDS011;3302;52.508;13.454;2023-07-29T04:19:33;1.00;;;0.97;;
6537;SDS011;3302;52.508;13.454;2023-07-29T04:21:58;0.20;;;0.20;;
6537;SDS011;3302;52.508;13.454;2023-07-29T04:24:24;0.30;;;0.30;;
6537;SDS011;3302;52.508;13.454;2023-07-29T04:26:50;0.30;;;0.30;;
6537;SDS011;3302;52.508;13.454;2023-07-29T04:29:16;0.20;;;0.20;;
6537;SDS011;3302;52.508;13.454;2023-07-29T04:31:42;0.30;;;0.30;;
6537;SDS011;3302;52.508;13.454;2023-07-29T04:34:08;0.40;;;0.40;;
6537;SDS011;3302;52.508;13.454;2023-07-29T04:36:34;0.23;;;0.23;;
6537;SDS011;3302;52.508;13.454;2023-07-29T04:39:00;0.30;;;0.30;;
6537;SDS011;3302;52.508;13.454;2023-07-29T04:41:26;0.57;;;0.57;;
6537;SDS011;3302;52.508;13.454;2023-07-29T04:43:51;0.30;;;0.30;;
6537;SDS011;3302;52.508;13.454;2023-07-29T04:46:17;0.40;;;0.40;;
6537;SDS011;3302;52.508;13.454;2023-07-29T04:48:43;0.30;;;0.30;;
6537;SDS011;3302;52.508;13.454;2023-07-29T04:51:09;0.30;;;0.30;;
6537;SDS011;3302;52.508;13.454;2023-07-29T04:53:35;0.30;;;0.30;;
6537;SDS011;3302;52.508;13.454;2023-07-29T04:56:02;0.43;;;0.43;;
6537;SDS011;3302;52.508;13.454;2023-07-29T04:58:28;0.50;;;0.50;;
6537;SDS011;3302;52.508;13.454;2023-07-29T05:00:55;0.20;;;0.20;;
6537;SDS011;3302;52.508;13.454;2023-07-29T05:03:21;0.30;;;0.30;;
6537;SDS011;3302;52.508;13.454;2023-07-29T05:05:47;0.97;;;0.87;;
6537;SDS011;3302;52.508;13.454;2023-07-29T05:08:13;0.40;;;0.40;;
6537;SDS011;3302;52.508;13.454;2023-07-29T05:10:39;0.23;;;0.23;;
6537;SDS011;3302;52.508;13.454;2023-07-29T05:13:05;0.23;;;0.23;;
6537;SDS011;3302;52.508;13.454;2023-07-29T05:15:31;0.20;;;0.20;;
6537;SDS011;3302;52.508;13.454;2023-07-29T05:17:56;0.20;;;0.20;;
6537;SDS011;3302;52.508;13.454;2023-07-29T05:20:22;0.20;;;0.20;;
6537;SDS011;3302;52.508;13.454;2023-07-29T05:22:48;0.20;;;0.20;;
6537;SDS011;3302;52.508;13.454;2023-07-29T05:25:14;0.30;;;0.30;;
6537;SDS011;3302;52.508;13.454;2023-07-29T05:27:40;0.50;;;0.50;;
6537;SDS011;3302;52.508;13.454;2023-07-29T05:30:06;0.30;;;0.30;;
6537;SDS011;3302;52.508;13.454;2023-07-29T05:32:32;0.30;;;0.30;;
6537;SDS011;3302;52.508;13.454;2023-07-29T05:34:58;0.40;;;0.40;;
6537;SDS011;3302;52.508;13.454;2023-07-29T05:37:24;0.40;;;0.40;;
6537;SDS011;3302;52.508;13.454;2023-07-29T05:39:49;0.30;;;0.30;;
6537;SDS011;3302;52.508;13.454;2023-07-29T05:42:16;0.30;;;0.30;;
6537;SDS011;3302;52.508;13.454;2023-07-29T05:44:41;0.20;;;0.20;;
6537;SDS011;3302;52.508;13.454;2023-07-29T05:47:08;0.40;;;0.40;;
6537;SDS011;3302;52.508;13.454;2023-07-29T05:49:33;0.20;;;0.20;;
6537;SDS011;3302;52.508;13.454;2023-07-29T05:51:59;0.30;;;0.30;;
6537;SDS011;3302;52.508;13.454;2023-07-29T05:54:25;0.37;;;0.37;;
6537;SDS011;3302;52.508;13.454;2023-07-29T05:56:51;0.20;;;0.20;;
6537;SDS011;3302;52.508;13.454;2023-07-29T05:59:17;0.50;;;0.50;;
6537;SDS011;3302;52.508;13.454;2023-07-29T06:01:42;0.60;;;0.60;;
6537;SDS011;3302;52.508;13.454;2023-07-29T06:04:08;0.30;;;0.30;;
6537;SDS011;3302;52.508;13.454;2023-07-29T06:06:34;0.30;;;0.30;;
6537;SDS011;3302;52.508;13.454;2023-07-29T06:09:00;0.20;;;0.20;;
6537;SDS011;3302;52.508;13.454;2023-07-29T06:11:25;0.50;;;0.50;;
6537;SDS011;3302;52.508;13.454;2023-07-29T06:13:51;0.40;;;0.40;;
6537;SDS011;3302;52.508;13.454;2023-07-29T06:16:17;0.33;;;0.33;;
6537;SDS011;3302;52.508;13.454;2023-07-29T06:18:43;0.30;;;0.30;;
6537;SDS011;3302;52.508;13.454;2023-07-29T06:21:09;0.30;;;0.30;;
6537;SDS011;3302;52.508;13.454;2023-07-29T06:23:37;0.40;;;0.40;;
6537;SDS011;3302;52.508;13.454;2023-07-29T06:26:03;0.20;;;0.20;;
6537;SDS011;3302;52.508;13.454;2023-07-29T06:28:29;0.30;;;0.30;;
6537;SDS011;3302;52.508;13.454;2023-07-29T06:30:55;0.20;;;0.20;;
6537;SDS011;3302;52.508;13.454;2023-07-29T06:33:21;1.27;;;1.17;;
6537;SDS011;3302;52.508;13.454;2023-07-29T06:35:46;0.30;;;0.30;;
6537;SDS011;3302;52.508;13.454;2023-07-29T06:38:12;0.83;;;0.83;;
6537;SDS011;3302;52.508;13.454;2023-07-29T06:40:38;0.63;;;0.63;;
6537;SDS011;3302;52.508;13.454;2023-07-29T06:43:04;0.50;;;0.50;;
6537;SDS011;3302;52.508;13.454;2023-07-29T06:45:29;0.20;;;0.20;;
6537;SDS011;3302;52.508;13.454;2023-07-29T06:47:55;0.30;;;0.30;;
6537;SDS011;3302;52.508;13.454;2023-07-29T06:50:21;0.30;;;0.30;;
6537;SDS011;3302;52.508;13.454;2023-07-29T06:52:47;0.20;;;0.20;;
6537;SDS011;3302;52.508;13.454;2023-07-29T06:55:12;0.20;;;0.20;;
6537;SDS011;3302;52.508;13.454;2023-07-29T06:57:38;0.40;;;0.40;;
6537;SDS011;3302;52.508;13.454;2023-07-29T07:00:05;0.50;;;0.50;;
6537;SDS011;3302;52.508;13.454;2023-07-29T07:02:31;0.30;;;0.30;;
6537;SDS011;3302;52.508;13.454;2023-07-29T07:04:57;0.37;;;0.37;;
6537;SDS011;3302;52.508;13.454;2023-07-29T07:07:22;0.30;;;0.30;;
6537;SDS011;3302;52.508;13.454;2023-07-29T07:09:48;0.30;;;0.30;;
6537;SDS011;3302;52.508;13.454;2023-07-29T07:12:14;0.40;;;0.40;;
6537;SDS011;3302;52.508;13.454;2023-07-29T07:14:40;0.30;;;0.30;;
6537;SDS011;3302;52.508;13.454;2023-07-29T07:17:05;0.73;;;0.73;;
6537;SDS011;3302;52.508;13.454;2023-07-29T07:19:31;0.30;;;0.30;;
6537;SDS011;3302;52.508;13.454;2023-07-29T07:21:57;0.40;;;0.40;;
6537;SDS011;3302;52.508;13.454;2023-07-29T07:24:23;0.30;;;0.30;;
6537;SDS011;3302;52.508;13.454;2023-07-29T07:26:49;0.40;;;0.40;;
6537;SDS011;3302;52.508;13.454;2023-07-29T07:29:14;0.50;;;0.50;;
6537;SDS011;3302;52.508;13.454;2023-07-29T07:31:43;0.30;;;0.30;;
6537;SDS011;3302;52.508;13.454;2023-07-29T07:34:19;0.30;;;0.30;;
6537;SDS011;3302;52.508;13.454;2023-07-29T07:36:45;0.40;;;0.40;;
6537;SDS011;3302;52.508;13.454;2023-07-29T07:39:11;0.40;;;0.40;;
6537;SDS011;3302;52.508;13.454;2023-07-29T07:41:37;0.30;;;0.30;;
6537;SDS011;3302;52.508;13.454;2023-07-29T07:44:03;1.90;;;1.80;;
6537;SDS011;3302;52.508;13.454;2023-07-29T07:46:29;0.40;;;0.40;;
6537;SDS011;3302;52.508;13.454;2023-07-29T07:48:55;0.30;;;0.30;;
6537;SDS011;3302;52.508;13.454;2023-07-29T07:51:20;0.30;;;0.30;;
6537;SDS011;3302;52.508;13.454;2023-07-29T07:53:46;0.30;;;0.30;;
6537;SDS011;3302;52.508;13.454;2023-07-29T07:56:13;0.40;;;0.40;;
6537;SDS011;3302;52.508;13.454;2023-07-29T07:58:40;0.30;;;0.30;;
6537;SDS011;3302;52.508;13.454;2023-07-29T08:01:07;0.30;;;0.30;;
6537;SDS011;3302;52.508;13.454;2023-07-29T08:03:34;0.30;;;0.30;;
6537;SDS011;3302;52.508;13.454;2023-07-29T08:06:01;0.77;;;0.77;;
6537;SDS011;3302;52.508;13.454;2023-07-29T08:08:28;0.40;;;0.40;;
6537;SDS011;3302;52.508;13.454;2023-07-29T08:10:54;0.83;;;0.83;;
6537;SDS011;3302;52.508;13.454;2023-07-29T08:13:21;0.40;;;0.40;;
6537;SDS011;3302;52.508;13.454;2023-07-29T08:15:52;0.30;;;0.30;;
6537;SDS011;3302;52.508;13.454;2023-07-29T08:18:18;0.40;;;0.40;;
6537;SDS011;3302;52.508;13.454;2023-07-29T08:20:52;0.30;;;0.30;;
6537;SDS011;3302;52.508;13.454;2023-07-29T08:23:18;0.40;;;0.40;;
6537;SDS011;3302;52.508;13.454;2023-07-29T08:25:44;0.37;;;0.37;;
6537;SDS011;3302;52.508;13.454;2023-07-29T08:28:09;0.30;;;0.30;;
6537;SDS011;3302;52.508;13.454;2023-07-29T08:30:36;0.30;;;0.30;;
6537;SDS011;3302;52.508;13.454;2023-07-29T08:33:02;0.23;;;0.23;;
6537;SDS011;3302;52.508;13.454;2023-07-29T08:35:28;0.30;;;0.30;;
6537;SDS011;3302;52.508;13.454;2023-07-29T08:37:53;0.40;;;0.40;;
6537;SDS011;3302;52.508;13.454;2023-07-29T08:40:22;0.30;;;0.30;;
6537;SDS011;3302;52.508;13.454;2023-07-29T08:42:52;0.43;;;0.43;;
6537;SDS011;3302;52.508;13.454;2023-07-29T08:45:20;0.30;;;0.30;;
6537;SDS011;3302;52.508;13.454;2023-07-29T08:47:47;0.30;;;0.30;;
6537;SDS011;3302;52.508;13.454;2023-07-29T08:50:15;0.30;;;0.30;;
6537;SDS011;3302;52.508;13.454;2023-07-29T08:52:41;0.40;;;0.40;;
6537;SDS011;3302;52.508;13.454;2023-07-29T08:55:10;1.37;;;1.27;;
6537;SDS011;3302;52.508;13.454;2023-07-29T08:57:36;0.33;;;0.33;;
6537;SDS011;3302;52.508;13.454;2023-07-29T09:00:02;0.50;;;0.50;;
6537;SDS011;3302;52.508;13.454;2023-07-29T09:02:30;0.30;;;0.30;;
6537;SDS011;3302;52.508;13.454;2023-07-29T09:04:56;0.30;;;0.30;;
6537;SDS011;3302;52.508;13.454;2023-07-29T09:07:22;0.40;;;0.40;;
6537;SDS011;3302;52.508;13.454;2023-07-29T09:09:48;0.30;;;0.30;;
6537;SDS011;3302;52.508;13.454;2023-07-29T09:12:14;0.30;;;0.30;;
6537;SDS011;3302;52.508;13.454;2023-07-29T09:14:40;0.70;;;0.70;;
6537;SDS011;3302;52.508;13.454;2023-07-29T09:17:06;3.73;;;3.40;;
6537;SDS011;3302;52.508;13.454;2023-07-29T09:19:33;4.07;;;3.60;;
6537;SDS011;3302;52.508;13.454;2023-07-29T09:21:59;3.50;;;3.20;;
6537;SDS011;3302;52.508;13.454;2023-07-29T09:24:25;6.17;;;3.63;;
6537;SDS011;3302;52.508;13.454;2023-07-29T09:26:54;4.43;;;4.03;;
6537;SDS011;3302;52.508;13.454;2023-07-29T09:29:27;4.00;;;3.37;;
6537;SDS011;3302;52.508;13.454;2023-07-29T09:31:55;3.63;;;2.97;;
6537;SDS011;3302;52.508;13.454;2023-07-29T09:34:44;4.63;;;3.10;;
6537;SDS011;3302;52.508;13.454;2023-07-29T09:37:12;3.60;;;3.30;;
6537;SDS011;3302;52.508;13.454;2023-07-29T09:39:47;5.50;;;3.60;;
6537;SDS011;3302;52.508;13.454;2023-07-29T09:42:20;3.87;;;3.57;;
6537;SDS011;3302;52.508;13.454;2023-07-29T09:44:50;3.57;;;3.27;;
6537;SDS011;3302;52.508;13.454;2023-07-29T09:47:20;3.77;;;3.00;;
6537;SDS011;3302;52.508;13.454;2023-07-29T09:49:47;3.73;;;3.03;;
6537;SDS011;3302;52.508;13.454;2023-07-29T09:52:16;3.10;;;2.80;;
6537;SDS011;3302;52.508;13.454;2023-07-29T09:54:44;3.93;;;3.17;;
6537;SDS011;3302;52.508;13.454;2023-07-29T09:57:11;3.33;;;2.77;;
6537;SDS011;3302;52.508;13.454;2023-07-29T09:59:38;3.40;;;3.03;;
6537;SDS011;3302;52.508;13.454;2023-07-29T10:02:04;2.97;;;2.77;;
6537;SDS011;3302;52.508;13.454;2023-07-29T10:04:35;5.10;;;2.93;;
6537;SDS011;3302;52.508;13.454;2023-07-29T10:07:01;2.90;;;2.70;;
6537;SDS011;3302;52.508;13.454;2023-07-29T10:09:27;3.30;;;3.00;;
6537;SDS011;3302;52.508;13.454;2023-07-29T10:11:53;3.10;;;2.80;;
6537;SDS011;3302;52.508;13.454;2023-07-29T10:14:20;3.07;;;2.73;;
6537;SDS011;3302;52.508;13.454;2023-07-29T10:16:47;3.30;;;2.60;;
6537;SDS011;3302;52.508;13.454;2023-07-29T10:19:13;3.23;;;2.90;;
6537;SDS011;3302;52.508;13.454;2023-07-29T10:21:41;3.43;;;3.17;;
6537;SDS011;3302;52.508;13.454;2023-07-29T10:24:15;3.20;;;2.90;;
6537;SDS011;3302;52.508;13.454;2023-07-29T10:26:44;2.80;;;2.60;;
6537;SDS011;3302;52.508;13.454;2023-07-29T10:29:12;2.50;;;2.30;;
6537;SDS011;3302;52.508;13.454;2023-07-29T10:31:40;4.13;;;2.80;;
6537;SDS011;3302;52.508;13.454;2023-07-29T10:34:08;3.43;;;2.73;;
6537;SDS011;3302;52.508;13.454;2023-07-29T10:36:36;2.33;;;2.00;;
6537;SDS011;3302;52.508;13.454;2023-07-29T10:39:02;3.00;;;2.20;;
6537;SDS011;3302;52.508;13.454;2023-07-29T10:41:53;2.80;;;2.60;;
6537;SDS011;3302;52.508;13.454;2023-07-29T10:49:56;2.60;;;2.40;;
6537;SDS011;3302;52.508;13.454;2023-07-29T10:55:01;2.83;;;2.37;;
6537;SDS011;3302;52.508;13.454;2023-07-29T10:57:35;5.07;;;2.43;;
6537;SDS011;3302;52.508;13.454;2023-07-29T11:00:04;2.83;;;2.40;;
6537;SDS011;3302;52.508;13.454;2023-07-29T11:02:31;2.10;;;1.90;;
6537;SDS011;3302;52.508;13.454;2023-07-29T11:05:04;3.07;;;1.90;;
6537;SDS011;3302;52.508;13.454;2023-07-29T11:07:36;2.93;;;2.10;;
6537;SDS011;3302;52.508;13.454;2023-07-29T11:10:12;2.87;;;2.13;;
6537;SDS011;3302;52.508;13.454;2023-07-29T11:12:46;3.17;;;1.87;;
6537;SDS011;3302;52.508;13.454;2023-07-29T11:15:26;5.47;;;2.00;;
6537;SDS011;3302;52.508;13.454;2023-07-29T11:17:55;2.87;;;2.00;;
6537;SDS011;3302;52.508;13.454;2023-07-29T11:20:31;2.13;;;1.87;;
6537;SDS011;3302;52.508;13.454;2023-07-29T11:22:59;1.97;;;1.40;;
6537;SDS011;3302;52.508;13.454;2023-07-29T11:25:27;4.40;;;2.43;;
6537;SDS011;3302;52.508;13.454;2023-07-29T11:27:55;3.13;;;2.10;;
6537;SDS011;3302;52.508;13.454;2023-07-29T11:30:22;5.23;;;1.97;;
6537;SDS011;3302;52.508;13.454;2023-07-29T11:32:51;5.40;;;2.20;;
6537;SDS011;3302;52.508;13.454;2023-07-29T11:35:18;4.77;;;3.20;;
6537;SDS011;3302;52.508;13.454;2023-07-29T11:37:45;2.97;;;2.40;;
6537;SDS011;3302;52.508;13.454;2023-07-29T11:40:19;3.83;;;2.73;;
6537;SDS011;3302;52.508;13.454;2023-07-29T11:42:47;2.13;;;1.80;;
6537;SDS011;3302;52.508;13.454;2023-07-29T11:45:15;3.00;;;2.30;;
6537;SDS011;3302;52.508;13.454;2023-07-29T11:47:41;2.37;;;1.90;;
6537;SDS011;3302;52.508;13.454;2023-07-29T11:50:08;1.93;;;1.60;;
6537;SDS011;3302;52.508;13.454;2023-07-29T11:52:36;2.43;;;1.90;;
6537;SDS011;3302;52.508;13.454;2023-07-29T11:55:03;2.30;;;1.90;;
6537;SDS011;3302;52.508;13.454;2023-07-29T11:57:30;2.20;;;1.80;;
6537;SDS011;3302;52.508;13.454;2023-07-29T11:59:56;3.23;;;2.60;;
6537;SDS011;3302;52.508;13.454;2023-07-29T12:02:23;3.17;;;2.87;;
6537;SDS011;3302;52.508;13.454;2023-07-29T12:04:50;3.50;;;2.20;;
6537;SDS011;3302;52.508;13.454;2023-07-29T12:07:17;3.33;;;1.80;;
6537;SDS011;3302;52.508;13.454;2023-07-29T12:09:44;2.50;;;1.87;;
6537;SDS011;3302;52.508;13.454;2023-07-29T12:12:11;2.27;;;2.00;;
6537;SDS011;3302;52.508;13.454;2023-07-29T12:14:37;5.17;;;3.10;;
6537;SDS011;3302;52.508;13.454;2023-07-29T12:17:04;2.17;;;1.90;;
6537;SDS011;3302;52.508;13.454;2023-07-29T12:19:31;2.57;;;2.20;;
6537;SDS011;3302;52.508;13.454;2023-07-29T12:21:59;2.00;;;1.80;;
6537;SDS011;3302;52.508;13.454;2023-07-29T12:24:25;2.30;;;2.00;;
6537;SDS011;3302;52.508;13.454;2023-07-29T12:26:51;2.83;;;2.00;;
6537;SDS011;3302;52.508;13.454;2023-07-29T12:29:18;1.60;;;1.50;;
6537;SDS011;3302;52.508;13.454;2023-07-29T12:31:48;3.43;;;2.30;;
6537;SDS011;3302;52.508;13.454;2023-07-29T12:34:20;2.43;;;2.10;;
6537;SDS011;3302;52.508;13.454;2023-07-29T12:36:48;2.67;;;2.10;;
6537;SDS011;3302;52.508;13.454;2023-07-29T12:41:44;2.33;;;2.13;;
6537;SDS011;3302;52.508;13.454;2023-07-29T12:44:10;3.10;;;2.47;;
6537;SDS011;3302;52.508;13.454;2023-07-29T12:46:38;2.63;;;2.27;;
6537;SDS011;3302;52.508;13.454;2023-07-29T12:49:03;3.47;;;3.17;;
6537;SDS011;3302;52.508;13.454;2023-07-29T12:51:30;4.53;;;2.80;;
6537;SDS011;3302;52.508;13.454;2023-07-29T12:53:55;2.53;;;2.33;;
6537;SDS011;3302;52.508;13.454;2023-07-29T12:56:21;2.70;;;2.47;;
6537;SDS011;3302;52.508;13.454;2023-07-29T12:58:47;3.10;;;2.80;;
6537;SDS011;3302;52.508;13.454;2023-07-29T13:01:13;2.87;;;2.37;;
6537;SDS011;3302;52.508;13.454;2023-07-29T13:03:43;3.00;;;2.70;;
6537;SDS011;3302;52.508;13.454;2023-07-29T13:06:09;3.33;;;2.93;;
6537;SDS011;3302;52.508;13.454;2023-07-29T13:08:35;4.10;;;3.00;;
6537;SDS011;3302;52.508;13.454;2023-07-29T13:11:01;3.00;;;2.50;;
6537;SDS011;3302;52.508;13.454;2023-07-29T13:13:27;2.93;;;2.20;;
6537;SDS011;3302;52.508;13.454;2023-07-29T13:15:52;2.70;;;2.50;;
6537;SDS011;3302;52.508;13.454;2023-07-29T13:18:18;3.20;;;2.67;;
6537;SDS011;3302;52.508;13.454;2023-07-29T13:20:44;3.07;;;2.73;;
6537;SDS011;3302;52.508;13.454;2023-07-29T13:23:10;3.30;;;3.00;;
6537;SDS011;3302;52.508;13.454;2023-07-29T13:25:35;4.27;;;2.87;;
6537;SDS011;3302;52.508;13.454;2023-07-29T13:28:01;2.77;;;2.40;;
6537;SDS011;3302;52.508;13.454;2023-07-29T13:30:27;3.13;;;2.70;;
6537;SDS011;3302;52.508;13.454;2023-07-29T13:32:53;3.47;;;3.17;;
6537;SDS011;3302;52.508;13.454;2023-07-29T13:35:19;2.60;;;2.10;;
6537;SDS011;3302;52.508;13.454;2023-07-29T13:37:44;2.33;;;2.13;;
6537;SDS011;3302;52.508;13.454;2023-07-29T13:40:10;2.67;;;2.47;;
6537;SDS011;3302;52.508;13.454;2023-07-29T13:42:36;2.90;;;2.60;;
6537;SDS011;3302;52.508;13.454;2023-07-29T13:45:02;2.70;;;2.20;;
6537;SDS011;3302;52.508;13.454;2023-07-29T13:47:28;2.90;;;2.57;;
6537;SDS011;3302;52.508;13.454;2023-07-29T13:49:54;2.40;;;2.20;;
6537;SDS011;3302;52.508;13.454;2023-07-29T13:52:19;2.40;;;2.20;;
6537;SDS011;3302;52.508;13.454;2023-07-29T13:54:45;2.37;;;2.17;;
6537;SDS011;3302;52.508;13.454;2023-07-29T13:57:11;2.80;;;2.20;;
6537;SDS011;3302;52.508;13.454;2023-07-29T13:59:37;2.37;;;1.80;;
6537;SDS011;3302;52.508;13.454;2023-07-29T14:02:05;2.50;;;2.30;;
6537;SDS011;3302;52.508;13.454;2023-07-29T14:04:32;2.50;;;2.07;;
6537;SDS011;3302;52.508;13.454;2023-07-29T14:06:58;3.03;;;2.40;;
6537;SDS011;3302;52.508;13.454;2023-07-29T14:09:24;2.80;;;2.60;;
6537;SDS011;3302;52.508;13.454;2023-07-29T14:11:50;2.40;;;2.20;;
6537;SDS011;3302;52.508;13.454;2023-07-29T14:14:16;2.90;;;2.00;;
6537;SDS011;3302;52.508;13.454;2023-07-29T14:16:42;2.30;;;1.67;;
6537;SDS011;3302;52.508;13.454;2023-07-29T14:19:08;2.00;;;1.80;;
6537;SDS011;3302;52.508;13.454;2023-07-29T14:21:34;1.70;;;1.60;;
6537;SDS011;3302;52.508;13.454;2023-07-29T14:24:00;2.00;;;1.80;;
6537;SDS011;3302;52.508;13.454;2023-07-29T14:26:26;2.10;;;1.93;;
6537;SDS011;3302;52.508;13.454;2023-07-29T14:28:51;2.23;;;1.80;;
6537;SDS011;3302;52.508;13.454;2023-07-29T14:31:17;2.10;;;1.90;;
6537;SDS011;3302;52.508;13.454;2023-07-29T14:33:43;1.80;;;1.70;;
6537;SDS011;3302;52.508;13.454;2023-07-29T14:36:09;2.00;;;1.90;;
6537;SDS011;3302;52.508;13.454;2023-07-29T14:38:35;2.60;;;1.80;;
6537;SDS011;3302;52.508;13.454;2023-07-29T14:41:02;2.23;;;1.70;;
6537;SDS011;3302;52.508;13.454;2023-07-29T14:43:30;1.77;;;1.67;;
6537;SDS011;3302;52.508;13.454;2023-07-29T14:45:56;1.87;;;1.77;;
6537;SDS011;3302;52.508;13.454;2023-07-29T14:48:22;1.80;;;1.70;;
6537;SDS011;3302;52.508;13.454;2023-07-29T14:50:48;2.00;;;1.50;;
6537;SDS011;3302;52.508;13.454;2023-07-29T14:53:14;1.70;;;1.60;;
6537;SDS011;3302;52.508;13.454;2023-07-29T14:55:40;1.63;;;1.53;;
6537;SDS011;3302;52.508;13.454;2023-07-29T14:58:06;2.27;;;2.07;;
6537;SDS011;3302;52.508;13.454;2023-07-29T15:00:32;2.50;;;2.30;;
6537;SDS011;3302;52.508;13.454;2023-07-29T15:02:58;2.43;;;1.90;;
6537;SDS011;3302;52.508;13.454;2023-07-29T15:05:24;2.20;;;1.70;;
6537;SDS011;3302;52.508;13.454;2023-07-29T15:07:50;1.90;;;1.70;;
6537;SDS011;3302;52.508;13.454;2023-07-29T15:10:16;2.27;;;1.60;;
6537;SDS011;3302;52.508;13.454;2023-07-29T15:12:43;1.87;;;1.67;;
6537;SDS011;3302;52.508;13.454;2023-07-29T15:15:09;2.10;;;1.60;;
6537;SDS011;3302;52.508;13.454;2023-07-29T15:17:37;1.80;;;1.70;;